sensor_id;sensor_type;location;lat;lon;timestamp;P1;durP1;ratioP1;P2;durP2;ratioP2
1320;SDS011;653;51.480;11.992;2023-03-20T00:02:21;6.00;;;4.90;;
1320;SDS011;653;51.480;11.992;2023-03-20T00:04:47;5.67;;;5.07;;
1320;SDS011;653;51.480;11.992;2023-03-20T00:07:12;5.30;;;4.73;;
1320;SDS011;653;51.480;11.992;2023-03-20T00:09:38;6.30;;;5.70;;
1320;SDS011;653;51.480;11.992;2023-03-20T00:12:04;5.50;;;4.77;;
1320;SDS011;653;51.480;11.992;2023-03-20T00:14:29;7.97;;;4.80;;
1320;SDS011;653;51.480;11.992;2023-03-20T00:16:55;5.73;;;4.77;;
1320;SDS011;653;51.480;11.992;2023-03-20T00:19:22;5.63;;;5.13;;
1320;SDS011;653;51.480;11.992;2023-03-20T00:21:54;6.33;;;5.10;;
1320;SDS011;653;51.480;11.992;2023-03-20T00:24:20;6.10;;;5.50;;
1320;SDS011;653;51.480;11.992;2023-03-20T00:26:46;7.90;;;4.90;;
1320;SDS011;653;51.480;11.992;2023-03-20T00:29:20;5.20;;;4.70;;
1320;SDS011;653;51.480;11.992;2023-03-20T00:31:46;5.43;;;4.93;;
1320;SDS011;653;51.480;11.992;2023-03-20T00:34:12;5.57;;;5.07;;
1320;SDS011;653;51.480;11.992;2023-03-20T00:36:40;6.20;;;4.90;;
1320;SDS011;653;51.480;11.992;2023-03-20T00:39:05;6.77;;;5.00;;
1320;SDS011;653;51.480;11.992;2023-03-20T00:43:58;5.97;;;4.73;;
1320;SDS011;653;51.480;11.992;2023-03-20T00:46:25;5.70;;;4.80;;
1320;SDS011;653;51.480;11.992;2023-03-20T00:48:50;6.97;;;5.77;;
1320;SDS011;653;51.480;11.992;2023-03-20T00:51:17;8.73;;;5.37;;
1320;SDS011;653;51.480;11.992;2023-03-20T00:53:43;5.60;;;5.10;;
1320;SDS011;653;51.480;11.992;2023-03-20T00:58:52;6.63;;;5.20;;
1320;SDS011;653;51.480;11.992;2023-03-20T01:01:17;6.20;;;5.60;;
1320;SDS011;653;51.480;11.992;2023-03-20T01:03:42;5.70;;;5.20;;
1320;SDS011;653;51.480;11.992;2023-03-20T01:06:08;5.77;;;4.90;;
1320;SDS011;653;51.480;11.992;2023-03-20T01:08:36;7.50;;;5.30;;
1320;SDS011;653;51.480;11.992;2023-03-20T01:11:02;6.40;;;5.70;;
1320;SDS011;653;51.480;11.992;2023-03-20T01:13:28;6.30;;;5.70;;
1320;SDS011;653;51.480;11.992;2023-03-20T01:15:55;6.53;;;5.80;;
1320;SDS011;653;51.480;11.992;2023-03-20T01:18:22;7.17;;;5.07;;
1320;SDS011;653;51.480;11.992;2023-03-20T01:20:49;7.63;;;6.20;;
1320;SDS011;653;51.480;11.992;2023-03-20T01:23:17;7.87;;;6.07;;
1320;SDS011;653;51.480;11.992;2023-03-20T01:25:43;6.80;;;6.10;;
1320;SDS011;653;51.480;11.992;2023-03-20T01:28:15;6.20;;;5.60;;
1320;SDS011;653;51.480;11.992;2023-03-20T01:30:42;7.40;;;6.27;;
1320;SDS011;653;51.480;11.992;2023-03-20T01:33:15;6.40;;;5.80;;
1320;SDS011;653;51.480;11.992;2023-03-20T01:35:42;6.70;;;6.10;;
1320;SDS011;653;51.480;11.992;2023-03-20T01:38:26;7.00;;;6.30;;
1320;SDS011;653;51.480;11.992;2023-03-20T01:41:05;7.37;;;6.67;;
1320;SDS011;653;51.480;11.992;2023-03-20T01:43:35;10.53;;;7.47;;
1320;SDS011;653;51.480;11.992;2023-03-20T01:54:39;8.00;;;6.87;;
1320;SDS011;653;51.480;11.992;2023-03-20T01:56:57;7.40;;;6.33;;
1320;SDS011;653;51.480;11.992;2023-03-20T01:59:28;7.63;;;6.50;;
1320;SDS011;653;51.480;11.992;2023-03-20T02:01:56;6.80;;;6.10;;
1320;SDS011;653;51.480;11.992;2023-03-20T02:04:24;8.10;;;7.30;;
1320;SDS011;653;51.480;11.992;2023-03-20T02:06:51;8.97;;;7.53;;
1320;SDS011;653;51.480;11.992;2023-03-20T02:09:17;7.33;;;6.63;;
1320;SDS011;653;51.480;11.992;2023-03-20T02:11:44;9.23;;;6.47;;
1320;SDS011;653;51.480;11.992;2023-03-20T02:14:10;7.73;;;7.03;;
1320;SDS011;653;51.480;11.992;2023-03-20T02:16:36;7.50;;;6.73;;
1320;SDS011;653;51.480;11.992;2023-03-20T02:19:02;9.13;;;6.10;;
1320;SDS011;653;51.480;11.992;2023-03-20T02:24:31;7.17;;;6.40;;
1320;SDS011;653;51.480;11.992;2023-03-20T02:27:52;8.27;;;6.80;;
1320;SDS011;653;51.480;11.992;2023-03-20T02:46:17;7.57;;;6.87;;
1320;SDS011;653;51.480;11.992;2023-03-20T03:03:38;9.03;;;7.77;;
1320;SDS011;653;51.480;11.992;2023-03-20T03:08:36;9.17;;;8.20;;
1320;SDS011;653;51.480;11.992;2023-03-20T03:11:06;12.90;;;8.77;;
1320;SDS011;653;51.480;11.992;2023-03-20T03:13:34;8.97;;;8.07;;
1320;SDS011;653;51.480;11.992;2023-03-20T03:19:04;9.90;;;8.60;;
1320;SDS011;653;51.480;11.992;2023-03-20T03:21:39;11.03;;;8.40;;
1320;SDS011;653;51.480;11.992;2023-03-20T03:24:05;10.00;;;9.10;;
1320;SDS011;653;51.480;11.992;2023-03-20T03:26:39;8.70;;;7.80;;
1320;SDS011;653;51.480;11.992;2023-03-20T03:29:10;13.00;;;8.93;;
1320;SDS011;653;51.480;11.992;2023-03-20T03:31:38;9.60;;;8.60;;
1320;SDS011;653;51.480;11.992;2023-03-20T03:34:03;10.67;;;9.00;;
1320;SDS011;653;51.480;11.992;2023-03-20T03:42:12;10.57;;;9.43;;
1320;SDS011;653;51.480;11.992;2023-03-20T03:47:55;8.83;;;7.93;;
1320;SDS011;653;51.480;11.992;2023-03-20T03:50:36;9.90;;;8.90;;
1320;SDS011;653;51.480;11.992;2023-03-20T03:53:13;10.80;;;9.70;;
1320;SDS011;653;51.480;11.992;2023-03-20T03:55:42;10.00;;;8.50;;
1320;SDS011;653;51.480;11.992;2023-03-20T03:58:14;10.53;;;8.70;;
1320;SDS011;653;51.480;11.992;2023-03-20T04:00:44;18.13;;;8.20;;
1320;SDS011;653;51.480;11.992;2023-03-20T04:03:14;10.80;;;9.80;;
1320;SDS011;653;51.480;11.992;2023-03-20T04:05:41;11.37;;;9.47;;
1320;SDS011;653;51.480;11.992;2023-03-20T04:08:08;9.47;;;8.53;;
1320;SDS011;653;51.480;11.992;2023-03-20T04:10:33;10.37;;;9.40;;
1320;SDS011;653;51.480;11.992;2023-03-20T04:12:59;9.97;;;8.97;;
1320;SDS011;653;51.480;11.992;2023-03-20T04:15:25;10.07;;;9.07;;
1320;SDS011;653;51.480;11.992;2023-03-20T04:17:52;11.33;;;9.70;;
1320;SDS011;653;51.480;11.992;2023-03-20T04:20:17;11.27;;;9.03;;
1320;SDS011;653;51.480;11.992;2023-03-20T04:22:43;9.97;;;8.97;;
1320;SDS011;653;51.480;11.992;2023-03-20T04:25:14;10.87;;;9.87;;
1320;SDS011;653;51.480;11.992;2023-03-20T04:27:41;9.73;;;8.47;;
1320;SDS011;653;51.480;11.992;2023-03-20T04:30:07;11.23;;;9.90;;
1320;SDS011;653;51.480;11.992;2023-03-20T04:32:33;10.93;;;9.93;;
1320;SDS011;653;51.480;11.992;2023-03-20T04:34:59;11.47;;;9.60;;
1320;SDS011;653;51.480;11.992;2023-03-20T04:37:24;12.87;;;9.60;;
1320;SDS011;653;51.480;11.992;2023-03-20T04:39:50;10.50;;;9.43;;
1320;SDS011;653;51.480;11.992;2023-03-20T04:42:15;11.43;;;10.33;;
1320;SDS011;653;51.480;11.992;2023-03-20T04:44:41;10.47;;;9.03;;
1320;SDS011;653;51.480;11.992;2023-03-20T04:47:07;11.20;;;9.90;;
1320;SDS011;653;51.480;11.992;2023-03-20T04:49:33;10.57;;;9.43;;
1320;SDS011;653;51.480;11.992;2023-03-20T04:51:58;11.20;;;10.07;;
1320;SDS011;653;51.480;11.992;2023-03-20T04:54:23;11.60;;;9.77;;
1320;SDS011;653;51.480;11.992;2023-03-20T04:56:49;12.30;;;10.40;;
1320;SDS011;653;51.480;11.992;2023-03-20T04:59:15;10.77;;;9.73;;
1320;SDS011;653;51.480;11.992;2023-03-20T05:01:40;10.13;;;9.23;;
1320;SDS011;653;51.480;11.992;2023-03-20T05:04:06;11.93;;;10.30;;
1320;SDS011;653;51.480;11.992;2023-03-20T05:06:32;11.40;;;10.17;;
1320;SDS011;653;51.480;11.992;2023-03-20T05:08:57;11.70;;;10.17;;
1320;SDS011;653;51.480;11.992;2023-03-20T05:11:24;13.70;;;12.07;;
1320;SDS011;653;51.480;11.992;2023-03-20T05:13:50;11.97;;;10.50;;
1320;SDS011;653;51.480;11.992;2023-03-20T05:16:15;11.50;;;10.40;;
1320;SDS011;653;51.480;11.992;2023-03-20T05:18:41;11.97;;;10.77;;
1320;SDS011;653;51.480;11.992;2023-03-20T05:21:06;10.97;;;9.90;;
1320;SDS011;653;51.480;11.992;2023-03-20T05:23:32;13.17;;;11.60;;
1320;SDS011;653;51.480;11.992;2023-03-20T05:25:58;12.80;;;11.10;;
1320;SDS011;653;51.480;11.992;2023-03-20T05:28:23;16.40;;;12.20;;
1320;SDS011;653;51.480;11.992;2023-03-20T05:30:48;17.60;;;12.33;;
1320;SDS011;653;51.480;11.992;2023-03-20T05:33:14;13.50;;;11.90;;
1320;SDS011;653;51.480;11.992;2023-03-20T05:35:40;13.67;;;10.70;;
1320;SDS011;653;51.480;11.992;2023-03-20T05:38:05;15.37;;;11.40;;
1320;SDS011;653;51.480;11.992;2023-03-20T05:40:31;13.97;;;11.50;;
1320;SDS011;653;51.480;11.992;2023-03-20T05:42:57;13.13;;;10.97;;
1320;SDS011;653;51.480;11.992;2023-03-20T05:45:22;14.50;;;11.40;;
1320;SDS011;653;51.480;11.992;2023-03-20T05:47:48;16.47;;;12.97;;
1320;SDS011;653;51.480;11.992;2023-03-20T05:50:13;16.53;;;12.50;;
1320;SDS011;653;51.480;11.992;2023-03-20T05:52:39;20.43;;;15.33;;
1320;SDS011;653;51.480;11.992;2023-03-20T05:55:08;24.77;;;17.57;;
1320;SDS011;653;51.480;11.992;2023-03-20T05:57:33;32.60;;;22.33;;
1320;SDS011;653;51.480;11.992;2023-03-20T05:59:59;50.57;;;30.90;;
1320;SDS011;653;51.480;11.992;2023-03-20T06:02:24;54.97;;;33.40;;
1320;SDS011;653;51.480;11.992;2023-03-20T06:04:50;52.27;;;32.73;;
1320;SDS011;653;51.480;11.992;2023-03-20T06:07:15;57.93;;;33.47;;
1320;SDS011;653;51.480;11.992;2023-03-20T06:09:41;57.80;;;34.20;;
1320;SDS011;653;51.480;11.992;2023-03-20T06:12:06;58.53;;;35.23;;
1320;SDS011;653;51.480;11.992;2023-03-20T06:14:32;69.23;;;38.03;;
1320;SDS011;653;51.480;11.992;2023-03-20T06:16:57;66.00;;;38.47;;
1320;SDS011;653;51.480;11.992;2023-03-20T06:19:25;89.17;;;42.70;;
1320;SDS011;653;51.480;11.992;2023-03-20T06:21:53;81.10;;;46.00;;
1320;SDS011;653;51.480;11.992;2023-03-20T06:24:19;88.40;;;42.80;;
1320;SDS011;653;51.480;11.992;2023-03-20T06:26:45;92.07;;;45.87;;
1320;SDS011;653;51.480;11.992;2023-03-20T06:29:11;95.57;;;47.87;;
1320;SDS011;653;51.480;11.992;2023-03-20T06:31:36;86.40;;;46.03;;
1320;SDS011;653;51.480;11.992;2023-03-20T06:34:02;95.60;;;46.93;;
1320;SDS011;653;51.480;11.992;2023-03-20T06:36:29;90.33;;;46.70;;
1320;SDS011;653;51.480;11.992;2023-03-20T06:38:55;92.30;;;48.80;;
1320;SDS011;653;51.480;11.992;2023-03-20T06:41:21;90.03;;;47.37;;
1320;SDS011;653;51.480;11.992;2023-03-20T06:43:46;94.13;;;47.70;;
1320;SDS011;653;51.480;11.992;2023-03-20T06:46:12;96.50;;;50.57;;
1320;SDS011;653;51.480;11.992;2023-03-20T06:48:38;95.00;;;50.47;;
1320;SDS011;653;51.480;11.992;2023-03-20T06:51:04;93.20;;;47.70;;
1320;SDS011;653;51.480;11.992;2023-03-20T06:53:29;96.90;;;49.47;;
1320;SDS011;653;51.480;11.992;2023-03-20T06:55:55;97.30;;;51.20;;
1320;SDS011;653;51.480;11.992;2023-03-20T06:58:20;103.27;;;51.67;;
1320;SDS011;653;51.480;11.992;2023-03-20T07:00:46;96.23;;;49.77;;
1320;SDS011;653;51.480;11.992;2023-03-20T07:03:11;96.60;;;47.03;;
1320;SDS011;653;51.480;11.992;2023-03-20T07:05:37;91.30;;;48.67;;
1320;SDS011;653;51.480;11.992;2023-03-20T07:08:04;95.37;;;48.87;;
1320;SDS011;653;51.480;11.992;2023-03-20T07:10:31;90.37;;;48.60;;
1320;SDS011;653;51.480;11.992;2023-03-20T07:12:56;90.80;;;46.87;;
1320;SDS011;653;51.480;11.992;2023-03-20T07:15:22;85.70;;;48.07;;
1320;SDS011;653;51.480;11.992;2023-03-20T07:17:48;82.23;;;46.33;;
1320;SDS011;653;51.480;11.992;2023-03-20T07:20:14;83.43;;;45.43;;
1320;SDS011;653;51.480;11.992;2023-03-20T07:22:39;91.07;;;48.17;;
1320;SDS011;653;51.480;11.992;2023-03-20T07:25:06;78.70;;;43.87;;
1320;SDS011;653;51.480;11.992;2023-03-20T07:27:34;80.63;;;47.70;;
1320;SDS011;653;51.480;11.992;2023-03-20T07:30:00;78.07;;;47.80;;
1320;SDS011;653;51.480;11.992;2023-03-20T07:32:25;84.20;;;46.30;;
1320;SDS011;653;51.480;11.992;2023-03-20T07:34:51;79.13;;;46.20;;
1320;SDS011;653;51.480;11.992;2023-03-20T07:37:16;84.53;;;46.60;;
1320;SDS011;653;51.480;11.992;2023-03-20T07:39:42;83.80;;;47.90;;
1320;SDS011;653;51.480;11.992;2023-03-20T07:42:07;80.47;;;49.67;;
1320;SDS011;653;51.480;11.992;2023-03-20T07:44:33;80.37;;;45.80;;
1320;SDS011;653;51.480;11.992;2023-03-20T07:47:01;72.57;;;44.00;;
1320;SDS011;653;51.480;11.992;2023-03-20T07:49:30;69.00;;;44.10;;
1320;SDS011;653;51.480;11.992;2023-03-20T07:51:57;71.00;;;44.07;;
1320;SDS011;653;51.480;11.992;2023-03-20T07:54:23;88.17;;;44.37;;
1320;SDS011;653;51.480;11.992;2023-03-20T07:56:50;61.47;;;39.10;;
1320;SDS011;653;51.480;11.992;2023-03-20T07:59:18;68.10;;;41.83;;
1320;SDS011;653;51.480;11.992;2023-03-20T08:01:44;66.53;;;41.83;;
1320;SDS011;653;51.480;11.992;2023-03-20T08:04:10;64.00;;;39.87;;
1320;SDS011;653;51.480;11.992;2023-03-20T08:06:36;60.83;;;39.00;;
1320;SDS011;653;51.480;11.992;2023-03-20T08:09:04;55.90;;;37.57;;
1320;SDS011;653;51.480;11.992;2023-03-20T08:11:30;68.20;;;38.67;;
1320;SDS011;653;51.480;11.992;2023-03-20T08:13:59;62.50;;;38.40;;
1320;SDS011;653;51.480;11.992;2023-03-20T08:16:26;61.93;;;37.50;;
1320;SDS011;653;51.480;11.992;2023-03-20T08:18:53;60.03;;;37.87;;
1320;SDS011;653;51.480;11.992;2023-03-20T08:21:26;59.17;;;38.00;;
1320;SDS011;653;51.480;11.992;2023-03-20T08:23:54;54.30;;;37.30;;
1320;SDS011;653;51.480;11.992;2023-03-20T08:26:20;65.07;;;39.80;;
1320;SDS011;653;51.480;11.992;2023-03-20T08:28:46;61.60;;;38.03;;
1320;SDS011;653;51.480;11.992;2023-03-20T08:31:11;61.53;;;38.00;;
1320;SDS011;653;51.480;11.992;2023-03-20T08:33:37;58.87;;;37.77;;
1320;SDS011;653;51.480;11.992;2023-03-20T08:36:03;65.83;;;38.20;;
1320;SDS011;653;51.480;11.992;2023-03-20T08:38:29;59.97;;;36.13;;
1320;SDS011;653;51.480;11.992;2023-03-20T08:40:54;61.60;;;37.53;;
1320;SDS011;653;51.480;11.992;2023-03-20T08:43:21;60.47;;;37.97;;
1320;SDS011;653;51.480;11.992;2023-03-20T08:45:47;52.03;;;33.67;;
1320;SDS011;653;51.480;11.992;2023-03-20T08:48:12;61.80;;;34.97;;
1320;SDS011;653;51.480;11.992;2023-03-20T08:50:38;60.73;;;38.80;;
1320;SDS011;653;51.480;11.992;2023-03-20T08:53:04;57.90;;;35.47;;
1320;SDS011;653;51.480;11.992;2023-03-20T08:55:30;52.00;;;32.97;;
1320;SDS011;653;51.480;11.992;2023-03-20T08:57:56;53.73;;;34.80;;
1320;SDS011;653;51.480;11.992;2023-03-20T09:00:22;53.83;;;33.60;;
1320;SDS011;653;51.480;11.992;2023-03-20T09:02:48;54.87;;;33.97;;
1320;SDS011;653;51.480;11.992;2023-03-20T09:05:15;50.17;;;33.13;;
1320;SDS011;653;51.480;11.992;2023-03-20T09:07:40;61.40;;;34.43;;
1320;SDS011;653;51.480;11.992;2023-03-20T09:10:07;52.00;;;32.87;;
1320;SDS011;653;51.480;11.992;2023-03-20T09:12:33;57.70;;;34.07;;
1320;SDS011;653;51.480;11.992;2023-03-20T09:15:00;53.37;;;34.37;;
1320;SDS011;653;51.480;11.992;2023-03-20T09:17:25;62.30;;;34.30;;
1320;SDS011;653;51.480;11.992;2023-03-20T09:19:51;52.00;;;34.50;;
1320;SDS011;653;51.480;11.992;2023-03-20T09:22:17;54.50;;;33.90;;
1320;SDS011;653;51.480;11.992;2023-03-20T09:24:43;55.97;;;34.77;;
1320;SDS011;653;51.480;11.992;2023-03-20T09:27:09;55.93;;;34.97;;
1320;SDS011;653;51.480;11.992;2023-03-20T09:29:34;58.13;;;34.33;;
1320;SDS011;653;51.480;11.992;2023-03-20T09:32:00;49.93;;;34.63;;
1320;SDS011;653;51.480;11.992;2023-03-20T09:34:26;49.80;;;32.13;;
1320;SDS011;653;51.480;11.992;2023-03-20T09:36:51;52.97;;;33.73;;
1320;SDS011;653;51.480;11.992;2023-03-20T09:39:18;56.73;;;34.27;;
1320;SDS011;653;51.480;11.992;2023-03-20T09:41:47;51.57;;;33.90;;
1320;SDS011;653;51.480;11.992;2023-03-20T09:47:15;48.03;;;30.13;;
1320;SDS011;653;51.480;11.992;2023-03-20T09:49:58;56.83;;;34.40;;
1320;SDS011;653;51.480;11.992;2023-03-20T09:55:38;47.27;;;31.53;;
1320;SDS011;653;51.480;11.992;2023-03-20T09:58:13;51.40;;;32.47;;
1320;SDS011;653;51.480;11.992;2023-03-20T10:00:46;48.77;;;31.60;;
1320;SDS011;653;51.480;11.992;2023-03-20T10:05:50;55.30;;;32.00;;
1320;SDS011;653;51.480;11.992;2023-03-20T10:08:21;55.10;;;32.63;;
1320;SDS011;653;51.480;11.992;2023-03-20T10:11:09;51.60;;;32.07;;
1320;SDS011;653;51.480;11.992;2023-03-20T10:19:28;45.37;;;27.90;;
1320;SDS011;653;51.480;11.992;2023-03-20T10:24:55;50.90;;;31.80;;
1320;SDS011;653;51.480;11.992;2023-03-20T10:27:39;49.60;;;30.17;;
1320;SDS011;653;51.480;11.992;2023-03-20T10:33:14;49.97;;;30.70;;
1320;SDS011;653;51.480;11.992;2023-03-20T10:36:09;48.17;;;30.73;;
1320;SDS011;653;51.480;11.992;2023-03-20T10:39:05;55.23;;;30.00;;
1320;SDS011;653;51.480;11.992;2023-03-20T10:41:37;47.60;;;29.70;;
1320;SDS011;653;51.480;11.992;2023-03-20T10:44:04;51.20;;;31.43;;
1320;SDS011;653;51.480;11.992;2023-03-20T10:46:33;52.23;;;32.57;;
1320;SDS011;653;51.480;11.992;2023-03-20T10:49:13;49.57;;;31.10;;
1320;SDS011;653;51.480;11.992;2023-03-20T10:51:45;44.00;;;28.80;;
1320;SDS011;653;51.480;11.992;2023-03-20T10:57:21;49.57;;;30.40;;
1320;SDS011;653;51.480;11.992;2023-03-20T10:59:51;41.73;;;28.00;;
1320;SDS011;653;51.480;11.992;2023-03-20T11:02:20;50.97;;;30.20;;
1320;SDS011;653;51.480;11.992;2023-03-20T11:04:47;45.53;;;29.10;;
1320;SDS011;653;51.480;11.992;2023-03-20T11:07:26;44.30;;;28.67;;
1320;SDS011;653;51.480;11.992;2023-03-20T11:12:33;38.17;;;26.33;;
1320;SDS011;653;51.480;11.992;2023-03-20T11:15:01;37.93;;;25.20;;
1320;SDS011;653;51.480;11.992;2023-03-20T11:17:29;37.27;;;25.43;;
1320;SDS011;653;51.480;11.992;2023-03-20T11:19:57;37.80;;;25.80;;
1320;SDS011;653;51.480;11.992;2023-03-20T11:22:28;34.17;;;24.93;;
1320;SDS011;653;51.480;11.992;2023-03-20T11:24:57;42.23;;;23.57;;
1320;SDS011;653;51.480;11.992;2023-03-20T11:27:27;31.50;;;24.40;;
1320;SDS011;653;51.480;11.992;2023-03-20T11:29:57;38.23;;;23.87;;
1320;SDS011;653;51.480;11.992;2023-03-20T11:32:35;39.30;;;25.23;;
1320;SDS011;653;51.480;11.992;2023-03-20T11:35:21;36.70;;;23.87;;
1320;SDS011;653;51.480;11.992;2023-03-20T11:37:51;37.97;;;23.80;;
1320;SDS011;653;51.480;11.992;2023-03-20T11:42:53;38.27;;;25.27;;
1320;SDS011;653;51.480;11.992;2023-03-20T11:45:35;42.10;;;25.33;;
1320;SDS011;653;51.480;11.992;2023-03-20T11:48:02;41.57;;;25.70;;
1320;SDS011;653;51.480;11.992;2023-03-20T11:50:33;40.97;;;26.43;;
1320;SDS011;653;51.480;11.992;2023-03-20T11:53:01;40.07;;;25.60;;
1320;SDS011;653;51.480;11.992;2023-03-20T11:55:28;43.43;;;26.20;;
1320;SDS011;653;51.480;11.992;2023-03-20T11:57:59;41.63;;;27.77;;
1320;SDS011;653;51.480;11.992;2023-03-20T12:00:28;43.40;;;24.80;;
1320;SDS011;653;51.480;11.992;2023-03-20T12:03:00;41.70;;;24.33;;
1320;SDS011;653;51.480;11.992;2023-03-20T12:05:27;41.13;;;26.10;;
1320;SDS011;653;51.480;11.992;2023-03-20T12:08:12;43.27;;;26.60;;
1320;SDS011;653;51.480;11.992;2023-03-20T12:10:41;43.80;;;25.83;;
1320;SDS011;653;51.480;11.992;2023-03-20T12:13:18;42.97;;;27.50;;
1320;SDS011;653;51.480;11.992;2023-03-20T12:15:50;41.13;;;25.93;;
1320;SDS011;653;51.480;11.992;2023-03-20T12:18:32;38.63;;;24.90;;
1320;SDS011;653;51.480;11.992;2023-03-20T12:21:08;34.07;;;21.10;;
1320;SDS011;653;51.480;11.992;2023-03-20T12:23:43;36.27;;;18.63;;
1320;SDS011;653;51.480;11.992;2023-03-20T12:29:04;28.50;;;18.13;;
1320;SDS011;653;51.480;11.992;2023-03-20T12:31:41;25.60;;;16.30;;
1320;SDS011;653;51.480;11.992;2023-03-20T12:34:13;24.30;;;16.10;;
1320;SDS011;653;51.480;11.992;2023-03-20T12:36:43;30.10;;;16.20;;
1320;SDS011;653;51.480;11.992;2023-03-20T12:39:14;27.90;;;17.00;;
1320;SDS011;653;51.480;11.992;2023-03-20T12:44:44;23.33;;;15.80;;
1320;SDS011;653;51.480;11.992;2023-03-20T12:47:28;24.30;;;15.83;;
1320;SDS011;653;51.480;11.992;2023-03-20T12:55:20;22.80;;;15.20;;
1320;SDS011;653;51.480;11.992;2023-03-20T13:00:34;21.83;;;14.50;;
1320;SDS011;653;51.480;11.992;2023-03-20T13:14:00;27.67;;;17.30;;
1320;SDS011;653;51.480;11.992;2023-03-20T13:16:36;23.83;;;18.23;;
1320;SDS011;653;51.480;11.992;2023-03-20T13:22:05;24.93;;;17.60;;
1320;SDS011;653;51.480;11.992;2023-03-20T13:24:34;26.63;;;17.10;;
1320;SDS011;653;51.480;11.992;2023-03-20T13:37:47;29.27;;;18.63;;
1320;SDS011;653;51.480;11.992;2023-03-20T13:45:25;26.70;;;16.10;;
1320;SDS011;653;51.480;11.992;2023-03-20T13:48:06;30.60;;;18.13;;
1320;SDS011;653;51.480;11.992;2023-03-20T13:50:39;29.10;;;18.07;;
1320;SDS011;653;51.480;11.992;2023-03-20T13:53:14;27.80;;;16.80;;
1320;SDS011;653;51.480;11.992;2023-03-20T13:55:50;27.23;;;19.50;;
1320;SDS011;653;51.480;11.992;2023-03-20T14:00:58;28.00;;;19.53;;
1320;SDS011;653;51.480;11.992;2023-03-20T14:03:36;26.30;;;18.43;;
1320;SDS011;653;51.480;11.992;2023-03-20T14:06:16;27.23;;;19.30;;
1320;SDS011;653;51.480;11.992;2023-03-20T14:08:48;23.70;;;17.40;;
1320;SDS011;653;51.480;11.992;2023-03-20T14:13:47;28.43;;;19.00;;
1320;SDS011;653;51.480;11.992;2023-03-20T14:16:16;24.30;;;16.80;;
1320;SDS011;653;51.480;11.992;2023-03-20T14:18:43;26.47;;;18.83;;
1320;SDS011;653;51.480;11.992;2023-03-20T14:21:11;23.33;;;17.17;;
1320;SDS011;653;51.480;11.992;2023-03-20T14:23:39;25.27;;;17.00;;
1320;SDS011;653;51.480;11.992;2023-03-20T14:26:09;29.87;;;17.90;;
1320;SDS011;653;51.480;11.992;2023-03-20T14:28:51;26.67;;;16.93;;
1320;SDS011;653;51.480;11.992;2023-03-20T14:31:31;31.43;;;20.50;;
1320;SDS011;653;51.480;11.992;2023-03-20T14:53:48;26.37;;;18.20;;
1320;SDS011;653;51.480;11.992;2023-03-20T14:56:34;30.43;;;20.50;;
1320;SDS011;653;51.480;11.992;2023-03-20T14:59:01;33.07;;;21.17;;
1320;SDS011;653;51.480;11.992;2023-03-20T15:07:15;28.70;;;18.50;;
1320;SDS011;653;51.480;11.992;2023-03-20T15:09:44;28.20;;;21.00;;
1320;SDS011;653;51.480;11.992;2023-03-20T15:12:12;27.90;;;19.20;;
1320;SDS011;653;51.480;11.992;2023-03-20T15:14:47;27.20;;;19.00;;
1320;SDS011;653;51.480;11.992;2023-03-20T15:17:27;23.87;;;17.00;;
1320;SDS011;653;51.480;11.992;2023-03-20T15:22:47;22.60;;;16.80;;
1320;SDS011;653;51.480;11.992;2023-03-20T15:25:17;23.10;;;17.33;;
1320;SDS011;653;51.480;11.992;2023-03-20T15:27:44;25.20;;;17.13;;
1320;SDS011;653;51.480;11.992;2023-03-20T15:30:12;23.53;;;17.00;;
1320;SDS011;653;51.480;11.992;2023-03-20T15:32:40;25.10;;;16.10;;
1320;SDS011;653;51.480;11.992;2023-03-20T15:35:15;23.13;;;16.80;;
1320;SDS011;653;51.480;11.992;2023-03-20T15:37:43;27.57;;;17.70;;
1320;SDS011;653;51.480;11.992;2023-03-20T15:40:16;22.70;;;16.23;;
1320;SDS011;653;51.480;11.992;2023-03-20T15:45:47;26.00;;;17.30;;
1320;SDS011;653;51.480;11.992;2023-03-20T15:48:15;26.13;;;17.63;;
1320;SDS011;653;51.480;11.992;2023-03-20T15:50:53;22.60;;;15.50;;
1320;SDS011;653;51.480;11.992;2023-03-20T15:53:22;25.03;;;16.20;;
1320;SDS011;653;51.480;11.992;2023-03-20T15:55:52;24.20;;;16.40;;
1320;SDS011;653;51.480;11.992;2023-03-20T15:58:26;26.10;;;17.93;;
1320;SDS011;653;51.480;11.992;2023-03-20T16:00:53;25.40;;;16.20;;
1320;SDS011;653;51.480;11.992;2023-03-20T16:03:19;23.00;;;16.50;;
1320;SDS011;653;51.480;11.992;2023-03-20T16:05:47;23.97;;;16.67;;
1320;SDS011;653;51.480;11.992;2023-03-20T16:08:17;26.50;;;17.27;;
1320;SDS011;653;51.480;11.992;2023-03-20T16:10:54;21.10;;;14.57;;
1320;SDS011;653;51.480;11.992;2023-03-20T16:13:23;22.10;;;15.07;;
1320;SDS011;653;51.480;11.992;2023-03-20T16:15:49;23.10;;;15.10;;
1320;SDS011;653;51.480;11.992;2023-03-20T16:18:18;20.90;;;15.43;;
1320;SDS011;653;51.480;11.992;2023-03-20T16:20:50;20.10;;;15.37;;
1320;SDS011;653;51.480;11.992;2023-03-20T16:23:26;22.13;;;13.63;;
1320;SDS011;653;51.480;11.992;2023-03-20T16:26:16;23.70;;;15.23;;
1320;SDS011;653;51.480;11.992;2023-03-20T16:28:48;24.90;;;16.33;;
1320;SDS011;653;51.480;11.992;2023-03-20T16:31:22;24.43;;;15.40;;
1320;SDS011;653;51.480;11.992;2023-03-20T16:33:50;24.83;;;15.00;;
1320;SDS011;653;51.480;11.992;2023-03-20T16:36:17;25.53;;;15.40;;
1320;SDS011;653;51.480;11.992;2023-03-20T16:38:56;22.33;;;14.50;;
1320;SDS011;653;51.480;11.992;2023-03-20T16:41:35;30.87;;;16.87;;
1320;SDS011;653;51.480;11.992;2023-03-20T16:44:06;21.47;;;15.13;;
1320;SDS011;653;51.480;11.992;2023-03-20T16:46:35;25.87;;;17.90;;
1320;SDS011;653;51.480;11.992;2023-03-20T16:51:57;24.33;;;15.30;;
1320;SDS011;653;51.480;11.992;2023-03-20T16:54:25;24.90;;;15.87;;
1320;SDS011;653;51.480;11.992;2023-03-20T16:56:53;19.60;;;14.57;;
1320;SDS011;653;51.480;11.992;2023-03-20T16:59:20;25.47;;;16.53;;
1320;SDS011;653;51.480;11.992;2023-03-20T17:01:50;18.83;;;14.67;;
1320;SDS011;653;51.480;11.992;2023-03-20T17:04:31;23.23;;;15.60;;
1320;SDS011;653;51.480;11.992;2023-03-20T17:07:17;22.47;;;15.00;;
1320;SDS011;653;51.480;11.992;2023-03-20T17:09:54;24.00;;;15.20;;
1320;SDS011;653;51.480;11.992;2023-03-20T17:12:25;24.13;;;16.43;;
1320;SDS011;653;51.480;11.992;2023-03-20T17:14:52;22.47;;;17.00;;
1320;SDS011;653;51.480;11.992;2023-03-20T17:17:21;24.10;;;16.47;;
1320;SDS011;653;51.480;11.992;2023-03-20T17:19:47;26.17;;;16.70;;
1320;SDS011;653;51.480;11.992;2023-03-20T17:22:15;23.97;;;16.27;;
1320;SDS011;653;51.480;11.992;2023-03-20T17:24:43;25.30;;;17.93;;
1320;SDS011;653;51.480;11.992;2023-03-20T17:27:10;24.23;;;14.63;;
1320;SDS011;653;51.480;11.992;2023-03-20T17:29:37;27.27;;;17.13;;
1320;SDS011;653;51.480;11.992;2023-03-20T17:32:10;24.90;;;16.50;;
1320;SDS011;653;51.480;11.992;2023-03-20T17:34:36;25.47;;;16.43;;
1320;SDS011;653;51.480;11.992;2023-03-20T17:37:02;27.27;;;18.50;;
1320;SDS011;653;51.480;11.992;2023-03-20T17:39:28;27.30;;;17.27;;
1320;SDS011;653;51.480;11.992;2023-03-20T17:41:54;26.57;;;16.07;;
1320;SDS011;653;51.480;11.992;2023-03-20T17:44:20;26.63;;;16.97;;
1320;SDS011;653;51.480;11.992;2023-03-20T17:46:46;26.60;;;16.57;;
1320;SDS011;653;51.480;11.992;2023-03-20T17:49:13;25.93;;;16.37;;
1320;SDS011;653;51.480;11.992;2023-03-20T17:51:41;29.60;;;17.33;;
1320;SDS011;653;51.480;11.992;2023-03-20T17:54:07;25.43;;;15.80;;
1320;SDS011;653;51.480;11.992;2023-03-20T17:56:33;27.73;;;17.90;;
1320;SDS011;653;51.480;11.992;2023-03-20T17:59:00;29.40;;;19.13;;